METAR Data
IDs: Format: Raw Decoded Include TAF

Data at: 1833 UTC 21 Sep 2018

KGYI 211815Z AUTO 17015G20KT 10SM SCT021 SCT039 SCT060 28/23 A2995 RMK AO2 T02830228 TSNO
KGYI 211755Z AUTO 18013KT 10SM SCT021 SCT040 BKN075 27/23 A2996 RMK AO2 60019 T02730234 10280 20233 TSNO
KGYI 211735Z AUTO 17014G19KT 10SM SCT021 SCT090 SCT110 28/23 A2997 RMK AO2 T02790234 TSNO
KGYI 211715Z AUTO 18012KT 10SM SCT017 BKN023 BKN031 27/23 A2998 RMK AO2 T02720233 TSNO
KGYI 211655Z AUTO 17017G22KT 10SM SCT020 BKN026 BKN031 27/23 A2999 RMK AO2 T02730229 TSNO
KGYI 211635Z AUTO 18011KT 10SM SCT020 BKN028 BKN050 27/24 A2999 RMK AO2 T02740236 TSNO
KGYI 211615Z AUTO 17014KT 10SM SCT016 SCT023 BKN055 28/24 A2999 RMK AO2 T02750241 TSNO
KGYI 211555Z AUTO 17011KT 10SM SCT014 BKN023 BKN080 27/24 A2999 RMK AO2 T02650240 TSNO
KGYI 211535Z AUTO 16011G15KT 10SM BKN014 OVC021 26/24 A2999 RMK AO2 T02580240 TSNO
KGYI 211515Z AUTO 16011KT 10SM SCT009 OVC016 25/24 A2999 RMK AO2 T02520237 TSNO
KGYI 211455Z AUTO 16011KT 10SM SCT008 BKN014 OVC060 25/24 A2998 RMK AO2 60019 T02500237 TSNO
KGYI 211435Z AUTO 15009KT 10SM SCT008 SCT041 BKN080 25/24 A2998 RMK AO2 T02460236 TSNO
KGYI 211415Z AUTO 15009KT 7SM SCT075 SCT120 25/24 A2997 RMK AO2 T02450235 TSNO
KGYI 211355Z AUTO 15011KT 10SM SCT075 SCT110 24/24 A2997 RMK AO2 T02420235 TSNO
KGYI 211335Z AUTO 15008KT 10SM SCT070 SCT080 BKN100 24/23 A2997 RMK AO2 T02390231 TSNO
KGYI 211315Z AUTO 16011KT 7SM SCT010 BKN070 OVC090 24/23 A2997 RMK AO2 T02370229 TSNO
KGYI 211255Z AUTO 16012G17KT 2SM -RA BKN007 BKN014 OVC055 24/23 A2997 RMK AO2 VIS 3/4V5 P0019 T02360229 TSNO
KGYI 211235Z AUTO 15008KT 7SM SCT007 OVC011 24/23 A2997 RMK AO2 T02350227 TSNO
KGYI 211215Z AUTO 15008KT 10SM BKN011 BKN029 OVC095 24/23 A2996 RMK AO2 T02350226 TSNO
KGYI 211155Z AUTO 15008KT 10SM SCT015 BKN050 OVC065 23/23 A2996 RMK AO2 P0002 60009 70009 T02330225 10237 20227 TSNO
KGYI 211135Z AUTO 14009KT 10SM SCT013 BKN030 OVC060 23/23 A2996 RMK AO2 P0002 T02320225 TSNO
KGYI 211115Z AUTO 15008KT 10SM SCT015 BKN032 OVC043 23/22 A2996 RMK AO2 P0002 T02310224 TSNO
KGYI 211055Z AUTO 15008KT 7SM SCT015 BKN043 OVC049 23/22 A2995 RMK AO2 P0004 T02300222 TSNO
KGYI 211035Z AUTO 14006KT 10SM SCT022 BKN034 OVC042 23/22 A2995 RMK AO2 P0004 T02300221 TSNO
KGYI 211015Z AUTO 13006KT 4SM -RA SCT025 BKN036 OVC060 23/22 A2995 RMK AO2 P0003 T02280220 TSNO
KGYI 210955Z AUTO 14005KT 5SM RA SCT038 BKN060 OVC070 23/22 A2996 RMK AO2 P0002 T02280216 TSNO
KGYI 210935Z AUTO 14005KT 7SM -RA SCT046 OVC050 23/22 A2996 RMK AO2 T02320215 TSNO
KGYI 210915Z AUTO 21007KT 10SM BKN060 OVC075 24/21 A2997 RMK AO2 T02350211 TSNO
KGYI 210855Z AUTO 18007KT 10SM BKN060 OVC075 23/21 A2996 RMK AO2 T02330210 TSNO
KGYI 210835Z AUTO 17007KT 10SM OVC060 23/21 A2996 RMK AO2 T02330210 TSNO
KGYI 210815Z AUTO 16007KT 10SM OVC060 24/21 A2996 RMK AO2 T02370210 TSNO
KGYI 210755Z AUTO 16005KT 10SM OVC060 24/21 A2996 RMK AO2 T02370210 TSNO
KGYI 210735Z AUTO 17006KT 10SM SCT050 BKN070 OVC085 24/21 A2996 RMK AO2 T02360209 TSNO
KGYI 210715Z AUTO 18005KT 10SM SCT080 24/21 A2996 RMK AO2 T02350210 TSNO
KGYI 210655Z AUTO 17006KT 10SM CLR 24/21 A2995 RMK AO2 T02350211 TSNO
KGYI 210635Z AUTO 17006KT 10SM SCT120 24/21 A2995 RMK AO2 T02350212 TSNO
KGYI 210615Z AUTO 17008KT 10SM SCT120 24/21 A2995 RMK AO2 T02350211 TSNO
KGYI 210555Z AUTO 17008KT 10SM CLR 24/21 A2996 RMK AO2 T02350211 10298 20235 403350235 TSNO
KGYI 210535Z AUTO 17009KT 10SM CLR 24/21 A2996 RMK AO2 T02390212 TSNO
KGYI 210515Z AUTO 19010KT 10SM CLR 24/22 A2996 RMK AO2 T02410215 TSNO
KGYI 210455Z AUTO 17010KT 10SM CLR 24/21 A2997 RMK AO2 T02420213 TSNO
KGYI 210435Z AUTO 16009KT 10SM CLR 24/21 A2996 RMK AO2 T02400211 TSNO
KGYI 210415Z AUTO 17006KT 10SM CLR 24/21 A2996 RMK AO2 T02380210 TSNO
KGYI 210355Z AUTO 17007KT 10SM CLR 24/21 A2997 RMK AO2 T02370207 TSNO
KGYI 210335Z AUTO 16009KT 10SM CLR 24/21 A2996 RMK AO2 T02410207
KGYI 210315Z AUTO 17011KT 10SM CLR 24/21 A2996 RMK AO2 T02420205
KGYI 210250Z AUTO 16014KT 10SM CLR 24/21 A2996 RMK AO2 T02430206
KGYI 210235Z AUTO 16011KT 10SM CLR 24/20 A2996 RMK AO2 T02430202
KGYI 210215Z AUTO 17011KT 10SM CLR 24/20 A2995 RMK AO2 T02390196
KGYI 210155Z AUTO 17015KT 10SM -RA SCT090 25/19 A2995 RMK AO2 T02520194
KGYI 210135Z AUTO 19019G24KT 10SM SCT046 SCT050 SCT070 28/20 A2994 RMK AO2 T02800201
KGYI 210115Z AUTO 17009KT 10SM CLR 28/21 A2991 RMK AO2 T02810206
KGYI 210055Z AUTO 17009KT 10SM CLR 29/20 A2991 RMK AO2 T02860202
KGYI 210035Z AUTO 17009KT 10SM CLR 29/21 A2990 RMK AO2 T02910206
KGYI 210015Z AUTO 16009KT 10SM CLR 30/20 A2990 RMK AO2 T02960204
KGYI 202355Z AUTO 17009KT 10SM CLR 30/19 A2990 RMK AO2 T02990191 10335 20299
KGYI 202335Z AUTO 15010KT 10SM CLR 31/20 A2989 RMK AO2 T03050195
KGYI 202315Z AUTO 15013KT 10SM CLR 31/20 A2988 RMK AO2 T03080198
KGYI 202255Z AUTO 15014KT 10SM SCT048 SCT060 31/20 A2988 RMK AO2 T03140199
KGYI 202235Z AUTO 13012G18KT 10SM SCT046 32/20 A2989 RMK AO2 T03180204
KGYI 202215Z AUTO 15009KT 10SM SCT046 32/21 A2989 RMK AO2 T03190208
KGYI 202155Z AUTO 15010KT 10SM SCT048 32/20 A2990 RMK AO2 T03240204
KGYI 202135Z AUTO 15015G18KT 10SM SCT050 32/21 A2990 RMK AO2 T03220207
KGYI 202115Z AUTO 18014G17KT 10SM SCT044 32/21 A2991 RMK AO2 T03170211
KGYI 202055Z AUTO 16010G15KT 10SM CLR 31/21 A2990 RMK AO2 T03110206
KGYI 202035Z AUTO 17012G16KT 10SM CLR 32/20 A2991 RMK AO2 T03150201
KGYI 202015Z AUTO 17012G17KT 10SM CLR 32/20 A2991 RMK AO2 T03150198
KGYI 201955Z AUTO 17011G16KT 10SM CLR 32/19 A2992 RMK AO2 T03220194
KGYI 201935Z AUTO 16010G14KT 10SM CLR 33/20 A2993 RMK AO2 T03300197
KGYI 201915Z AUTO 18013G17KT 10SM SCT050 33/20 A2994 RMK AO2 T03310198
KGYI 201855Z AUTO 17010G16KT 10SM SCT047 33/20 A2995 RMK AO2 T03270196
KGYI 201835Z AUTO 15010G17KT 140V200 10SM SCT049 33/20 A2996 RMK AO2 T03260198
KGYI 201815Z AUTO 16010KT 10SM SCT046 32/19 A2997 RMK AO2 T03240194
KGYI 201755Z AUTO 17007G19KT 10SM SCT043 31/20 A2997 RMK AO2 T03080204 10320 20236
KGYI 201735Z AUTO 14010KT 10SM SCT041 SCT050 31/21 A2998 RMK AO2 T03110210
KGYI 201715Z AUTO 15012G16KT 10SM SCT037 SCT047 32/21 A2999 RMK AO2 T03150211
KGYI 201655Z AUTO 16010G14KT 10SM SCT033 SCT044 32/22 A3000 RMK AO2 T03150216
KGYI 201635Z AUTO 16006KT 10SM SCT033 SCT041 SCT048 30/22 A3000 RMK AO2 T03040222
KGYI 201615Z AUTO 16007KT 10SM SCT031 SCT038 30/22 A3000 RMK AO2 T03030222
KGYI 201555Z AUTO 16007KT 10SM CLR 30/22 A3001 RMK AO2 T02950224
KGYI 201535Z AUTO 17008KT 10SM CLR 29/22 A3000 RMK AO2 T02910221
KGYI 201515Z AUTO 19007KT 10SM CLR 29/22 A3000 RMK AO2 T02880221
KGYI 201455Z AUTO 17006KT 10SM CLR 28/22 A2999 RMK AO2 T02840220
KGYI 201435Z AUTO 18007KT 10SM CLR 28/22 A2999 RMK AO2 T02750219
KGYI 201415Z AUTO 15005KT 10SM CLR 27/22 A2999 RMK AO2 T02650221
KGYI 201355Z AUTO 16006KT 10SM CLR 26/22 A2998 RMK AO2 T02600220
KGYI 201335Z AUTO 15007KT 10SM CLR 25/22 A2997 RMK AO2 T02540219
KGYI 201315Z AUTO 15006KT 10SM CLR 25/22 A2997 RMK AO2 T02460217
KGYI 201255Z AUTO 14005KT 10SM CLR 24/22 A2997 RMK AO2 T02400217
KGYI 201235Z AUTO 14006KT 10SM CLR 24/22 A2996 RMK AO2 T02370216
KGYI 201215Z AUTO 15005KT 10SM CLR 24/22 A2995 RMK AO2 T02370215
KGYI 201155Z AUTO 16006KT 10SM CLR 24/22 A2995 RMK AO2 T02370216 10275 20237
KGYI 201135Z AUTO 17007KT 10SM CLR 24/22 A2995 RMK AO2 T02380215
KGYI 201115Z AUTO 16007KT 10SM CLR 24/22 A2994 RMK AO2 T02410216
KGYI 201055Z AUTO 17006KT 10SM CLR 24/22 A2993 RMK AO2 T02420217
KGYI 201035Z AUTO 15008KT 10SM CLR 25/22 A2994 RMK AO2 T02450217
KGYI 201015Z AUTO 15008KT 10SM CLR 25/22 A2994 RMK AO2 T02460216
KGYI 200955Z AUTO 15006KT 10SM CLR 25/22 A2994 RMK AO2 T02470216
KGYI 200935Z AUTO 15008KT 10SM CLR 25/22 A2993 RMK AO2 T02520216
KGYI 200915Z AUTO 15006KT 10SM CLR 25/22 A2993 RMK AO2 T02520216
KGYI 200855Z AUTO 16005KT 10SM CLR 25/22 A2994 RMK AO2 T02530215
KGYI 200835Z AUTO 15007KT 10SM CLR 26/22 A2994 RMK AO2 T02550215
KGYI 200815Z AUTO 14006KT 10SM CLR 26/22 A2995 RMK AO2 T02580216
KGYI 200755Z AUTO 13007KT 10SM CLR 26/22 A2994 RMK AO2 T02610219
KGYI 200735Z AUTO 13006KT 10SM CLR 27/22 A2994 RMK AO2 T02650220
KGYI 200715Z AUTO 15007KT 10SM CLR 27/22 A2995 RMK AO2 T02670221
KGYI 200655Z AUTO 16009KT 10SM CLR 27/22 A2995 RMK AO2 T02700221
KGYI 200635Z AUTO 16010KT 10SM CLR 27/22 A2995 RMK AO2 T02730220